createdAt,value
2023-08-08T00:01:13.949Z,3.50
2023-08-08T00:03:41.656Z,4.83
2023-08-08T00:06:09.217Z,4.33
2023-08-08T00:08:36.860Z,6.53
2023-08-08T00:11:04.442Z,4.47
2023-08-08T00:13:32.094Z,3.33
2023-08-08T00:15:59.860Z,4.23
2023-08-08T00:18:27.541Z,3.80
2023-08-08T00:20:55.076Z,5.80
2023-08-08T00:23:22.698Z,5.50
2023-08-08T00:25:50.279Z,3.77
2023-08-08T00:28:18.184Z,3.27
2023-08-08T00:30:46.004Z,4.23
2023-08-08T00:33:13.759Z,4.57
2023-08-08T00:35:41.388Z,5.93
2023-08-08T00:38:08.967Z,7.47
2023-08-08T00:40:36.524Z,5.33
2023-08-08T00:43:04.216Z,7.03
2023-08-08T00:45:31.837Z,5.03
2023-08-08T00:47:59.470Z,4.50
2023-08-08T00:50:27.132Z,5.27
2023-08-08T00:52:54.876Z,4.83
2023-08-08T00:55:23.070Z,4.67
2023-08-08T00:57:51.055Z,5.67
2023-08-08T01:00:18.645Z,4.93
2023-08-08T01:02:46.360Z,4.30
2023-08-08T01:05:13.979Z,4.37
2023-08-08T01:08:00.926Z,7.77
2023-08-08T01:10:30.203Z,4.70
2023-08-08T01:13:00.856Z,8.43
2023-08-08T01:15:28.495Z,6.47
2023-08-08T01:17:56.366Z,3.97
2023-08-08T01:20:24.396Z,5.90
2023-08-08T01:23:10.985Z,7.47
2023-08-08T01:25:39.644Z,5.23
2023-08-08T01:28:07.685Z,6.87
2023-08-08T01:30:35.408Z,4.60
2023-08-08T01:33:03.415Z,4.00
2023-08-08T01:35:33.040Z,4.33
2023-08-08T01:38:05.381Z,9.10
2023-08-08T01:40:33.582Z,3.33
2023-08-08T01:43:01.135Z,5.60
2023-08-08T01:45:28.732Z,4.90
2023-08-08T01:47:56.297Z,4.53
2023-08-08T01:50:23.880Z,5.63
2023-08-08T01:52:51.428Z,6.40
2023-08-08T01:55:19.055Z,4.97
2023-08-08T01:57:46.571Z,4.37
2023-08-08T02:00:14.260Z,5.40
2023-08-08T02:02:42.443Z,4.77
2023-08-08T02:05:10.205Z,6.67
2023-08-08T02:07:37.814Z,7.33
2023-08-08T02:10:05.887Z,6.80
2023-08-08T02:12:33.418Z,6.20
2023-08-08T02:15:01.000Z,4.33
2023-08-08T02:17:28.961Z,4.63
2023-08-08T02:19:56.543Z,7.00
2023-08-08T02:22:24.069Z,7.80
2023-08-08T02:24:51.676Z,9.57
2023-08-08T02:27:19.202Z,9.03
2023-08-08T02:29:46.889Z,7.77
2023-08-08T02:32:17.205Z,5.40
2023-08-08T02:34:44.894Z,5.77
2023-08-08T02:37:12.457Z,7.50
2023-08-08T02:39:40.069Z,5.87
2023-08-08T02:42:07.683Z,7.80
2023-08-08T02:44:35.247Z,5.07
2023-08-08T02:47:02.810Z,6.80
2023-08-08T02:49:30.427Z,8.03
2023-08-08T02:51:58.363Z,5.97
2023-08-08T02:54:26.170Z,6.60
2023-08-08T02:56:53.751Z,6.20
2023-08-08T02:59:21.425Z,10.37
2023-08-08T03:01:49.001Z,4.30
2023-08-08T03:04:16.992Z,7.57
2023-08-08T03:06:44.579Z,4.57
2023-08-08T03:09:12.141Z,5.63
2023-08-08T03:11:39.707Z,11.00
2023-08-08T03:14:07.393Z,4.07
2023-08-08T03:16:34.991Z,4.37
2023-08-08T03:19:02.603Z,7.70
2023-08-08T03:21:30.227Z,8.27
2023-08-08T03:23:58.130Z,7.13
2023-08-08T03:26:25.813Z,7.37
2023-08-08T03:28:53.400Z,8.63
2023-08-08T03:31:21.528Z,7.07
2023-08-08T03:33:49.213Z,6.30
2023-08-08T03:36:16.800Z,6.90
2023-08-08T03:38:44.464Z,6.53
2023-08-08T03:41:12.006Z,10.13
2023-08-08T03:43:40.346Z,5.93
2023-08-08T03:46:07.993Z,6.10
2023-08-08T03:48:35.567Z,6.90
2023-08-08T03:51:03.242Z,7.87
2023-08-08T03:53:31.187Z,6.30
2023-08-08T03:55:58.790Z,8.23
2023-08-08T03:58:26.444Z,10.67
2023-08-08T04:00:55.258Z,10.07
2023-08-08T04:03:22.943Z,11.10
2023-08-08T04:05:50.518Z,12.23
2023-08-08T04:08:20.235Z,8.87
2023-08-08T04:10:48.997Z,9.20
2023-08-08T04:13:16.537Z,14.53
2023-08-08T04:15:44.158Z,13.13
2023-08-08T04:18:11.720Z,6.57
2023-08-08T04:20:40.050Z,9.63
2023-08-08T04:23:07.686Z,8.70
2023-08-08T04:25:35.306Z,13.63
2023-08-08T04:28:02.903Z,8.17
2023-08-08T04:30:30.510Z,6.87
2023-08-08T04:32:58.041Z,12.63
2023-08-08T04:35:25.612Z,11.87
2023-08-08T04:37:53.166Z,13.33
2023-08-08T04:40:20.844Z,12.00
2023-08-08T04:42:48.444Z,14.20
2023-08-08T04:45:16.017Z,14.43
2023-08-08T04:47:43.594Z,9.27
2023-08-08T04:50:11.816Z,14.23
2023-08-08T04:52:39.336Z,14.47
2023-08-08T04:55:07.111Z,13.43
2023-08-08T04:57:34.710Z,11.53
2023-08-08T05:00:02.366Z,8.60
2023-08-08T05:02:29.960Z,15.73
2023-08-08T05:04:57.589Z,12.17
2023-08-08T05:07:25.166Z,10.03
2023-08-08T05:09:52.773Z,11.47
2023-08-08T05:12:20.297Z,16.67
2023-08-08T05:14:47.863Z,9.00
2023-08-08T05:17:15.428Z,12.90
2023-08-08T05:19:43.099Z,14.47
2023-08-08T05:22:10.729Z,10.63
2023-08-08T05:24:38.304Z,15.37
2023-08-08T05:27:06.058Z,10.07
2023-08-08T05:29:33.682Z,13.83
2023-08-08T05:32:01.729Z,13.40
2023-08-08T05:34:29.589Z,9.73
2023-08-08T05:39:27.748Z,14.10
2023-08-08T05:41:55.482Z,13.93
2023-08-08T05:44:23.103Z,12.03
2023-08-08T05:46:50.675Z,13.63
2023-08-08T05:49:18.337Z,13.50
2023-08-08T05:51:45.830Z,15.53
2023-08-08T05:54:13.469Z,12.03
2023-08-08T05:56:41.195Z,11.33
2023-08-08T05:59:08.787Z,15.07
2023-08-08T06:01:36.372Z,14.77
2023-08-08T06:04:04.042Z,12.80
2023-08-08T06:06:31.581Z,16.70
2023-08-08T06:08:59.234Z,14.97
2023-08-08T06:11:26.827Z,13.50
2023-08-08T06:13:54.432Z,14.23
2023-08-08T06:16:22.244Z,17.37
2023-08-08T06:18:49.938Z,11.43
2023-08-08T06:21:17.513Z,13.97
2023-08-08T06:23:45.102Z,15.87
2023-08-08T06:26:12.647Z,10.23
2023-08-08T06:28:40.202Z,18.87
2023-08-08T06:31:07.735Z,10.77
2023-08-08T06:33:35.362Z,11.43
2023-08-08T06:36:13.004Z,13.03
2023-08-08T06:38:42.498Z,12.47
2023-08-08T06:41:10.037Z,13.80
2023-08-08T06:43:37.604Z,13.63
2023-08-08T06:46:05.227Z,16.03
2023-08-08T06:48:32.940Z,13.83
2023-08-08T06:51:00.518Z,10.53
2023-08-08T06:53:28.110Z,10.97
2023-08-08T06:55:55.670Z,10.70
2023-08-08T06:58:23.340Z,10.83
2023-08-08T07:00:51.962Z,11.63
2023-08-08T07:03:19.705Z,16.33
2023-08-08T07:05:47.419Z,10.90
2023-08-08T07:08:15.027Z,9.03
2023-08-08T07:10:42.611Z,14.23
2023-08-08T07:13:10.374Z,10.10
2023-08-08T07:15:38.120Z,11.97
2023-08-08T07:18:08.911Z,11.33
2023-08-08T07:20:36.600Z,9.37
2023-08-08T07:23:04.212Z,13.43
2023-08-08T07:25:31.863Z,13.63
2023-08-08T07:27:59.484Z,9.70
2023-08-08T07:30:27.187Z,8.40
2023-08-08T07:32:54.736Z,11.23
2023-08-08T07:35:22.370Z,13.10
2023-08-08T07:37:49.913Z,10.73
2023-08-08T07:40:18.295Z,9.73
2023-08-08T07:42:46.505Z,9.37
2023-08-08T07:45:14.406Z,9.57
2023-08-08T07:47:42.036Z,10.03
2023-08-08T07:50:10.021Z,11.63
2023-08-08T07:52:38.104Z,7.77
2023-08-08T07:55:06.342Z,9.00
2023-08-08T07:57:34.134Z,6.80
2023-08-08T08:00:01.860Z,7.80
2023-08-08T08:02:29.415Z,9.97
2023-08-08T08:04:57.083Z,17.47
2023-08-08T08:07:24.627Z,10.47
2023-08-08T08:09:52.216Z,8.67
2023-08-08T08:12:19.735Z,12.67
2023-08-08T08:14:47.371Z,11.83
2023-08-08T08:17:14.976Z,11.23
2023-08-08T08:19:42.599Z,9.53
2023-08-08T08:22:13.326Z,13.93
2023-08-08T08:24:40.954Z,9.13
2023-08-08T08:27:08.521Z,10.03
2023-08-08T08:29:36.149Z,9.23
2023-08-08T08:32:04.060Z,11.73
2023-08-08T08:34:31.719Z,8.70
2023-08-08T08:36:59.333Z,6.17
2023-08-08T08:39:26.986Z,8.77
2023-08-08T08:42:00.241Z,7.20
2023-08-08T08:44:28.587Z,9.50
2023-08-08T08:46:57.399Z,11.77
2023-08-08T08:49:25.758Z,12.00
2023-08-08T08:51:53.480Z,9.67
2023-08-08T08:54:21.485Z,13.67
2023-08-08T08:56:49.102Z,8.03
2023-08-08T08:59:16.660Z,9.87
2023-08-08T09:01:44.314Z,9.20
2023-08-08T09:04:12.698Z,7.17
2023-08-08T09:06:40.340Z,8.47
2023-08-08T09:09:16.255Z,10.20
2023-08-08T09:11:49.357Z,8.97
2023-08-08T09:14:20.592Z,9.30
2023-08-08T09:16:48.795Z,9.30
2023-08-08T09:19:16.927Z,9.37
2023-08-08T09:21:44.638Z,10.83
2023-08-08T09:24:12.349Z,8.60
2023-08-08T09:26:43.883Z,11.03
2023-08-08T09:29:15.356Z,12.30
2023-08-08T09:31:43.050Z,9.60
2023-08-08T09:34:10.697Z,8.20
2023-08-08T09:36:38.380Z,8.00
2023-08-08T09:39:06.380Z,7.53
2023-08-08T09:41:34.229Z,8.30
2023-08-08T09:44:01.995Z,10.73
2023-08-08T09:46:31.589Z,7.67
2023-08-08T09:48:59.547Z,8.37
2023-08-08T09:51:27.534Z,7.73
2023-08-08T09:53:55.183Z,6.93
2023-08-08T09:56:23.488Z,5.97
2023-08-08T09:58:51.207Z,8.07
2023-08-08T10:01:18.969Z,5.40
2023-08-08T10:03:47.024Z,8.27
2023-08-08T10:06:15.124Z,9.00
2023-08-08T10:08:42.848Z,5.13
2023-08-08T10:11:10.861Z,10.93
2023-08-08T10:13:38.478Z,3.97
2023-08-08T10:16:11.829Z,5.67
2023-08-08T10:18:39.444Z,8.67
2023-08-08T10:21:07.050Z,6.43
2023-08-08T10:23:38.215Z,7.30
2023-08-08T10:26:06.374Z,5.30
2023-08-08T10:28:34.454Z,6.53
2023-08-08T10:31:02.657Z,6.37
2023-08-08T10:33:40.967Z,7.83
2023-08-08T10:36:09.493Z,6.03
2023-08-08T10:38:49.701Z,9.53
2023-08-08T10:41:20.340Z,6.03
2023-08-08T10:44:08.257Z,11.10
2023-08-08T10:46:35.897Z,6.80
2023-08-08T10:49:06.792Z,11.40
2023-08-08T10:51:38.739Z,5.53
2023-08-08T10:54:07.421Z,7.30
2023-08-08T10:56:36.725Z,8.30
2023-08-08T10:59:13.362Z,8.10
2023-08-08T11:01:41.728Z,7.70
2023-08-08T11:04:09.443Z,8.80
2023-08-08T11:06:37.113Z,5.93
2023-08-08T11:09:07.201Z,5.63
2023-08-08T11:11:38.380Z,10.90
2023-08-08T11:14:16.056Z,8.67
2023-08-08T11:16:44.273Z,7.10
2023-08-08T11:19:12.297Z,11.27
2023-08-08T11:21:42.334Z,11.03
2023-08-08T11:24:10.462Z,8.37
2023-08-08T11:26:38.676Z,5.63
2023-08-08T11:29:06.778Z,6.57
2023-08-08T11:31:36.041Z,7.37
2023-08-08T11:34:03.770Z,5.70
2023-08-08T11:36:31.939Z,6.53
2023-08-08T11:39:01.454Z,5.23
2023-08-08T11:41:29.012Z,6.63
2023-08-08T11:43:57.248Z,7.30
2023-08-08T11:46:25.341Z,6.37
2023-08-08T11:48:53.156Z,8.20
2023-08-08T11:51:20.832Z,8.20
2023-08-08T11:53:54.695Z,6.87
2023-08-08T11:56:22.870Z,6.97
2023-08-08T11:58:53.504Z,7.13
2023-08-08T12:01:21.989Z,5.00
2023-08-08T12:03:49.793Z,8.20
2023-08-08T12:06:18.043Z,7.13
2023-08-08T12:08:46.231Z,8.87
2023-08-08T12:11:14.261Z,6.63
2023-08-08T12:13:45.939Z,8.87
2023-08-08T12:16:17.771Z,9.00
2023-08-08T12:18:46.072Z,5.63
2023-08-08T12:21:13.650Z,4.57
2023-08-08T12:23:41.265Z,9.10
2023-08-08T12:26:08.944Z,6.80
2023-08-08T12:28:36.570Z,5.73
2023-08-08T12:31:04.217Z,5.77
2023-08-08T12:33:31.903Z,6.20
2023-08-08T12:35:59.491Z,5.50
2023-08-08T12:38:27.124Z,7.67
2023-08-08T12:40:54.802Z,7.07
2023-08-08T12:43:22.415Z,6.63
2023-08-08T12:45:52.142Z,5.93
2023-08-08T12:48:19.875Z,7.63
2023-08-08T12:50:47.505Z,6.30
2023-08-08T12:53:15.116Z,4.17
2023-08-08T12:55:42.733Z,5.50
2023-08-08T12:58:10.371Z,2.97
2023-08-08T13:00:37.953Z,7.60
2023-08-08T13:03:05.834Z,6.20
2023-08-08T13:05:35.387Z,5.00
2023-08-08T13:08:03.026Z,4.17
2023-08-08T13:10:30.622Z,5.60
2023-08-08T13:12:58.276Z,4.50
2023-08-08T13:15:25.850Z,4.37
2023-08-08T13:17:53.621Z,4.67
2023-08-08T13:20:21.195Z,7.73
2023-08-08T13:22:48.797Z,4.33
2023-08-08T13:25:16.401Z,7.33
2023-08-08T13:27:44.019Z,6.47
2023-08-08T13:30:11.763Z,5.37
2023-08-08T13:32:39.474Z,4.70
2023-08-08T13:35:07.725Z,5.90
2023-08-08T13:37:35.370Z,7.57
2023-08-08T13:40:02.921Z,7.60
2023-08-08T13:42:30.518Z,9.97
2023-08-08T13:44:58.077Z,4.93
2023-08-08T13:47:25.728Z,5.67
2023-08-08T13:49:53.414Z,4.00
2023-08-08T13:52:21.118Z,3.33
2023-08-08T13:54:48.663Z,3.73
2023-08-08T13:57:18.317Z,4.43
2023-08-08T13:59:45.937Z,3.73
2023-08-08T14:02:13.524Z,5.67
2023-08-08T14:04:41.149Z,4.23
2023-08-08T14:07:08.736Z,2.87
2023-08-08T14:09:36.385Z,2.37
2023-08-08T14:12:04.220Z,5.20
2023-08-08T14:14:31.870Z,4.07
2023-08-08T14:16:59.574Z,3.77
2023-08-08T14:19:27.188Z,4.77
2023-08-08T14:21:54.680Z,3.57
2023-08-08T14:24:22.318Z,2.90
2023-08-08T14:26:49.834Z,4.20
2023-08-08T14:29:17.434Z,4.00
2023-08-08T14:31:58.736Z,3.20
2023-08-08T14:34:35.453Z,1.83
2023-08-08T14:37:03.210Z,2.13
2023-08-08T14:39:30.911Z,5.60
2023-08-08T14:41:58.913Z,5.00
2023-08-08T14:44:26.750Z,3.73
2023-08-08T14:46:54.421Z,2.47
2023-08-08T14:49:21.973Z,2.43
2023-08-08T14:51:49.571Z,3.93
2023-08-08T14:54:17.150Z,3.80
2023-08-08T14:56:44.785Z,2.20
2023-08-08T14:59:12.353Z,2.87
2023-08-08T15:01:40.076Z,3.83
2023-08-08T15:04:07.735Z,1.30
2023-08-08T15:06:35.422Z,3.00
2023-08-08T15:09:02.959Z,3.60
2023-08-08T15:11:30.588Z,5.63
2023-08-08T15:13:58.178Z,1.97
2023-08-08T15:16:25.907Z,3.50
2023-08-08T15:18:53.501Z,2.73
2023-08-08T15:21:21.085Z,3.03
2023-08-08T15:23:49.238Z,3.47
2023-08-08T15:26:17.318Z,1.63
2023-08-08T15:28:44.874Z,2.97
2023-08-08T15:31:12.576Z,4.83
2023-08-08T15:33:40.140Z,3.43
2023-08-08T15:36:07.872Z,3.50
2023-08-08T15:38:35.374Z,2.13
2023-08-08T15:41:02.939Z,2.57
2023-08-08T15:43:30.486Z,4.07
2023-08-08T15:46:00.141Z,3.53
2023-08-08T15:48:28.087Z,4.23
2023-08-08T15:50:55.651Z,5.03
2023-08-08T15:53:23.247Z,4.00
2023-08-08T15:55:50.786Z,3.87
2023-08-08T15:58:18.416Z,2.50
2023-08-08T16:00:45.989Z,7.07
2023-08-08T16:03:13.699Z,2.23
2023-08-08T16:05:41.704Z,2.80
2023-08-08T16:08:09.349Z,3.03
2023-08-08T16:10:36.933Z,3.73
2023-08-08T16:13:04.704Z,2.77
2023-08-08T16:15:32.253Z,2.47
2023-08-08T16:17:59.894Z,2.77
2023-08-08T16:20:27.596Z,6.60
2023-08-08T16:22:55.248Z,3.77
2023-08-08T16:25:22.848Z,4.13
2023-08-08T16:27:50.470Z,4.63
2023-08-08T16:30:18.216Z,4.07
2023-08-08T16:32:45.818Z,6.70
2023-08-08T16:35:13.466Z,3.77
2023-08-08T16:37:41.085Z,2.97
2023-08-08T16:40:09.154Z,3.77
2023-08-08T16:42:36.780Z,3.80
2023-08-08T16:45:04.617Z,9.77
2023-08-08T16:47:32.200Z,4.23
2023-08-08T16:49:59.712Z,3.33
2023-08-08T16:52:29.548Z,3.27
2023-08-08T16:54:57.129Z,2.60
2023-08-08T16:57:24.672Z,4.70
2023-08-08T16:59:52.310Z,2.87
2023-08-08T17:02:19.854Z,3.23
2023-08-08T17:04:47.502Z,4.10
2023-08-08T17:07:17.465Z,4.87
2023-08-08T17:09:45.038Z,5.87
2023-08-08T17:12:12.571Z,9.27
2023-08-08T17:14:40.171Z,7.10
2023-08-08T17:17:07.717Z,5.83
2023-08-08T17:19:35.381Z,4.93
2023-08-08T17:22:03.248Z,6.23
2023-08-08T17:24:34.797Z,4.43
2023-08-08T17:27:05.132Z,4.20
2023-08-08T17:29:32.690Z,7.00
2023-08-08T17:32:00.569Z,4.17
2023-08-08T17:34:34.656Z,2.57
2023-08-08T17:37:02.272Z,4.10
2023-08-08T17:39:29.853Z,5.10
2023-08-08T17:41:57.476Z,5.97
2023-08-08T17:44:25.051Z,5.10
2023-08-08T17:46:52.725Z,5.07
2023-08-08T17:49:20.672Z,3.67
2023-08-08T17:51:53.361Z,4.93
2023-08-08T17:54:20.987Z,4.67
2023-08-08T17:56:48.941Z,3.00
2023-08-08T17:59:16.586Z,4.77
2023-08-08T18:01:44.327Z,3.73
2023-08-08T18:04:12.000Z,3.30
2023-08-08T18:06:39.802Z,6.53
2023-08-08T18:09:07.906Z,5.33
2023-08-08T18:11:35.555Z,6.70
2023-08-08T18:14:03.153Z,3.20
2023-08-08T18:16:30.751Z,4.40
2023-08-08T18:18:58.324Z,5.13
2023-08-08T18:21:28.704Z,4.73
2023-08-08T18:24:00.105Z,3.40
2023-08-08T18:26:27.676Z,3.73
2023-08-08T18:28:55.281Z,5.67
2023-08-08T18:31:23.023Z,3.83
2023-08-08T18:33:50.610Z,7.70
2023-08-08T18:36:18.203Z,10.23
2023-08-08T18:38:45.825Z,7.27
2023-08-08T18:41:13.451Z,3.87
2023-08-08T18:43:41.025Z,5.07
2023-08-08T18:46:08.891Z,3.70
2023-08-08T18:48:36.475Z,3.57
2023-08-08T18:51:04.120Z,3.53
2023-08-08T18:53:31.745Z,4.87
2023-08-08T18:55:59.548Z,3.23
2023-08-08T18:58:27.112Z,5.30
2023-08-08T19:00:54.814Z,4.27
2023-08-08T19:03:22.443Z,6.03
2023-08-08T19:05:50.118Z,4.03
2023-08-08T19:08:17.794Z,3.80
2023-08-08T19:10:45.750Z,3.27
2023-08-08T19:13:14.348Z,2.87
2023-08-08T19:15:42.208Z,4.17
2023-08-08T19:18:09.866Z,5.13
2023-08-08T19:20:37.494Z,5.20
2023-08-08T19:23:05.052Z,6.23
2023-08-08T19:25:32.734Z,5.30
2023-08-08T19:28:00.279Z,5.87
2023-08-08T19:30:27.886Z,5.17
2023-08-08T19:32:55.605Z,4.07
2023-08-08T19:35:23.358Z,5.97
2023-08-08T19:37:50.969Z,8.20
2023-08-08T19:40:18.731Z,5.07
2023-08-08T19:42:46.347Z,6.03
2023-08-08T19:45:30.119Z,5.50
2023-08-08T19:47:58.320Z,5.43
2023-08-08T19:50:25.989Z,5.07
2023-08-08T19:52:53.601Z,5.90
2023-08-08T19:55:21.182Z,6.67
2023-08-08T19:57:48.853Z,5.47
2023-08-08T20:00:16.648Z,5.37
2023-08-08T20:02:46.912Z,6.60
2023-08-08T20:05:15.085Z,6.10
2023-08-08T20:07:42.648Z,5.73
2023-08-08T20:10:10.328Z,6.77
2023-08-08T20:12:37.983Z,5.73
2023-08-08T20:15:05.914Z,6.57
2023-08-08T20:17:33.518Z,7.23
2023-08-08T20:20:01.235Z,5.13
2023-08-08T20:22:28.962Z,5.20
2023-08-08T20:24:56.554Z,5.67
2023-08-08T20:27:24.164Z,5.00
2023-08-08T20:29:51.869Z,5.40
2023-08-08T20:32:19.563Z,6.30
2023-08-08T20:34:47.156Z,7.47
2023-08-08T20:37:14.767Z,6.17
2023-08-08T20:39:45.609Z,4.93
2023-08-08T20:42:13.313Z,7.53
2023-08-08T20:44:40.862Z,5.40
2023-08-08T20:47:08.467Z,5.17
2023-08-08T20:49:36.075Z,4.13
2023-08-08T20:52:03.787Z,3.93
2023-08-08T20:54:31.424Z,6.30
2023-08-08T20:57:00.437Z,5.90
2023-08-08T20:59:28.484Z,5.80
2023-08-08T21:01:56.145Z,5.07
2023-08-08T21:04:23.690Z,5.90
2023-08-08T21:06:51.427Z,6.23
2023-08-08T21:09:19.139Z,8.77
2023-08-08T21:11:46.778Z,4.50
2023-08-08T21:14:14.406Z,6.47
2023-08-08T21:16:42.006Z,4.47
2023-08-08T21:19:09.616Z,6.17
2023-08-08T21:21:37.527Z,5.03
2023-08-08T21:24:07.724Z,5.13
2023-08-08T21:26:39.680Z,3.47
2023-08-08T21:29:08.122Z,4.37
2023-08-08T21:31:35.699Z,4.27
2023-08-08T21:34:03.775Z,4.60
2023-08-08T21:36:31.398Z,2.87
2023-08-08T21:38:59.532Z,4.43
2023-08-08T21:41:28.205Z,2.40
2023-08-08T21:43:55.836Z,3.00
2023-08-08T21:46:23.437Z,4.00
2023-08-08T21:48:51.094Z,2.30
2023-08-08T21:51:18.630Z,2.90
2023-08-08T21:53:46.300Z,4.13
2023-08-08T21:56:13.872Z,2.30
2023-08-08T21:58:41.527Z,2.87
2023-08-08T22:01:09.152Z,3.17
2023-08-08T22:03:36.944Z,3.07
2023-08-08T22:06:04.542Z,2.87
2023-08-08T22:08:32.242Z,4.80
2023-08-08T22:10:59.782Z,3.40
2023-08-08T22:13:27.424Z,5.73
2023-08-08T22:15:57.888Z,3.90
2023-08-08T22:18:25.606Z,4.60
2023-08-08T22:20:53.237Z,3.50
2023-08-08T22:23:21.684Z,4.67
2023-08-08T22:25:50.230Z,3.80
2023-08-08T22:28:18.354Z,4.43
2023-08-08T22:30:45.982Z,3.47
2023-08-08T22:33:13.642Z,6.20
2023-08-08T22:35:41.221Z,3.43
2023-08-08T22:38:08.831Z,5.53
2023-08-08T22:40:36.434Z,5.30
2023-08-08T22:43:04.128Z,4.17
2023-08-08T22:45:31.711Z,3.43
2023-08-08T22:47:59.374Z,4.77
2023-08-08T22:50:36.235Z,4.33
2023-08-08T22:53:03.959Z,5.27
2023-08-08T22:55:31.590Z,5.37
2023-08-08T22:57:59.201Z,4.03
2023-08-08T23:00:27.079Z,4.20
2023-08-08T23:02:54.749Z,3.27
2023-08-08T23:05:22.441Z,4.30
2023-08-08T23:07:50.162Z,4.10
2023-08-08T23:10:17.863Z,5.30
2023-08-08T23:12:45.512Z,4.43
2023-08-08T23:15:13.124Z,5.87
2023-08-08T23:17:40.827Z,4.70
2023-08-08T23:20:08.823Z,5.03
2023-08-08T23:22:36.533Z,5.33
2023-08-08T23:25:04.794Z,7.50
2023-08-08T23:27:32.510Z,6.60
2023-08-08T23:30:00.032Z,5.53
2023-08-08T23:32:27.748Z,6.70
2023-08-08T23:34:55.279Z,6.10
2023-08-08T23:37:22.871Z,6.57
2023-08-08T23:39:50.451Z,7.63
2023-08-08T23:42:18.101Z,7.13
2023-08-08T23:44:45.683Z,6.87
2023-08-08T23:47:13.347Z,8.40
2023-08-08T23:49:40.910Z,8.47
2023-08-08T23:52:10.521Z,7.87
2023-08-08T23:54:38.036Z,6.97
2023-08-08T23:57:05.923Z,4.97
2023-08-08T23:59:36.302Z,7.43
